KPRO

Perry Municipal Airport

Perry, Iowa, USA
METAR KPRO 171115Z AUTO 00000KT 10SM CLR 03/01 A3033 RMK AO2 T00290012
Observed Flight Rules
Oct-17 @ 11:15 UTC (7 hours ago) Visual Flight Rules
Visibility Clouds
10 miles
  • Clear skies
Temperatures Readings
Current 3°C / 37°F
Dewpoint 1°C / 34°F
Humidity 87%
Altimeter 30.33" Hg
Pressure 1027 hPa
Elevation 308
METAR KPRO 171115Z AUTO 00000KT 10SM CLR 03/01 A3033 RMK AO2 T00290012
Observed Flight Rules
Oct-17 @ 11:15 UTC
(7 hours ago)
VFR
Clouds
  • Clear skies
Temperature Dewpoint
3°C / 37°F 1°C / 34°F
Humidity Altimeter Pressure
87% 30.33" Hg 1027 hPa